الصفحة الرئيسية
METAR-TAF:

METAR-TAF

مطار :

مطار مليلية

مليلية, إسبانيا

دائرة عرض: 35-17N, خط طول: 002-57W, ارتفاع: 47 متر

مراقبة الطقس الحالي

تاريخ ووقت الإصدار 28 دقيقة قبل الساعة 12:30UTC
ريح 15 عقدة من الغرب, الاتجاه يتراوح بين الجنوب الغربي و الشمال الغربي
درجة الحرارة 22°درجة مئوية
الرطوبة 43%
ضغط 1013 hPa
الرؤية 10 كم أو أكثر
الغيوم لا تقل 1500 م ولا وجود لمزنة ركامية السحاب الأسود

METAR: GEML 191230Z 27015KT 230V320 CAVOK 22/09 Q1013

زمن: 14:58 (12:58 UTC)

توقعات

تاريخ ووقت الإصدار 4ساعات و 58 دقيقة قبل الساعة 08:00UTC
التوقعات صالحة من19 الساعة 09 UTC إلى 20 الساعة 09 UTC
ريح 13 عقدة من الغرب
الرؤية 10 كم أو أكثر
الغيوم لا تقل 1500 م ولا وجود لمزنة ركامية السحاب الأسود
مؤقت
من 19 الساعة 09 UTC إلى 19 الساعة 18 UTC
ريح 18 عقدة من الغرب تتزايد حتى 28 عقدة

TAF: GEML 190800Z 1909/2009 27013KT CAVOK TX22/1913Z TN17/2006Z TEMPO 1909/1918 27018G28KT

أرصاد الطقس والتوقعات من أكثر من 4000 مطار (تقارير الطقس للمطار METAR والتنبؤ بالطقس بالمطارTAF).

المحطات المتاحة هي النقط الصفراء والحمراء على الخريطة.

حرك المؤشر فوق النقطة لمعرفة اسم المحطة.

ثم انقر لمعرفة أرصاد وتوقعات الطقس.

لتغيير الخارطة: اضغط على الأزرار الخضراء مع رمز الصليب الأسود للتكبير. على الزر الأخضر مع شرطة للتصغير، أو على الأسهم الخضراء للخرائط المجاورة.


METAR-TAF: